Time;durP1;ratioP1;P1;durP2;ratioP2;P2;SDS_P1;SDS_P2;PMS_P1;PMS_P2;Temp;Humidity;BMP_temperature;BMP_pressure;BME280_temperature;BME280_humidity;BME280_pressure;Samples;Min_cycle;Max_cycle;Signal;HPM_P1;HPM_P2
2022/02/22 00:00:53;;;;;;;1.45;0.70;;;;;;;;;;5054652;28;20029;-83
2022/02/22 00:03:19;;;;;;;1.75;0.60;;;;;;;;;;5038154;28;20048;-85
2022/02/22 00:05:45;;;;;;;1.98;0.70;;;;;;;;;;5057026;28;20025;-84
2022/02/22 00:08:11;;;;;;;1.55;0.63;;;;;;;;;;5055729;28;20546;-83
2022/02/22 00:10:37;;;;;;;2.97;0.70;;;;;;;;;;5054784;28;20029;-84
2022/02/22 00:13:03;;;;;;;1.25;0.60;;;;;;;;;;5056221;28;20068;-82
2022/02/22 00:15:29;;;;;;;2.05;0.70;;;;;;;;;;5037739;28;20504;-83
2022/02/22 00:17:55;;;;;;;1.13;0.50;;;;;;;;;;5055807;28;20025;-84
2022/02/22 00:20:21;;;;;;;2.25;0.70;;;;;;;;;;5036219;28;20032;-85
2022/02/22 00:22:47;;;;;;;2.28;0.63;;;;;;;;;;5036577;28;20044;-85
2022/02/22 00:25:13;;;;;;;2.30;1.10;;;;;;;;;;5035835;28;20479;-84
2022/02/22 00:27:40;;;;;;;2.17;0.80;;;;;;;;;;5053876;28;20114;-86
2022/02/22 00:30:07;;;;;;;1.67;0.63;;;;;;;;;;5035316;28;20029;-84
2022/02/22 00:32:33;;;;;;;2.22;0.70;;;;;;;;;;5055826;28;20395;-83
2022/02/22 00:34:59;;;;;;;1.30;0.70;;;;;;;;;;5058172;28;20037;-85
2022/02/22 00:37:25;;;;;;;1.60;0.65;;;;;;;;;;5039895;28;20056;-84
2022/02/22 00:39:51;;;;;;;1.90;0.70;;;;;;;;;;5041541;28;20028;-83
2022/02/22 00:42:17;;;;;;;2.08;0.77;;;;;;;;;;5042144;28;20055;-85
2022/02/22 00:44:43;;;;;;;2.25;0.90;;;;;;;;;;5041441;28;20377;-85
2022/02/22 00:47:09;;;;;;;1.30;0.63;;;;;;;;;;5059138;28;20040;-83
2022/02/22 00:49:35;;;;;;;2.72;1.15;;;;;;;;;;5039900;28;20373;-85
2022/02/22 00:52:02;;;;;;;1.90;0.70;;;;;;;;;;5039390;28;20021;-85
2022/02/22 00:54:28;;;;;;;2.13;0.90;;;;;;;;;;5057854;28;20487;-83
2022/02/22 00:56:54;;;;;;;2.50;1.00;;;;;;;;;;5057960;28;20032;-86
2022/02/22 00:59:20;;;;;;;2.28;1.02;;;;;;;;;;5058474;28;20021;-85
2022/02/22 01:01:46;;;;;;;2.65;1.00;;;;;;;;;;5057898;28;20033;-85
2022/02/22 01:04:12;;;;;;;1.92;0.90;;;;;;;;;;5057886;28;20252;-87
2022/02/22 01:06:38;;;;;;;2.85;1.15;;;;;;;;;;5057918;28;20316;-86
2022/02/22 01:09:06;;;;;;;1.88;0.80;;;;;;;;;;5040508;28;20029;-86
2022/02/22 01:11:32;;;;;;;1.73;0.75;;;;;;;;;;5040784;28;20029;-86
2022/02/22 01:13:58;;;;;;;2.53;0.90;;;;;;;;;;5039945;28;20021;-86
2022/02/22 01:16:24;;;;;;;2.13;0.98;;;;;;;;;;5057951;28;20123;-86
2022/02/22 01:18:50;;;;;;;2.08;0.80;;;;;;;;;;5057829;28;20504;-84
2022/02/22 01:21:16;;;;;;;2.30;0.90;;;;;;;;;;5039843;28;20033;-86
2022/02/22 01:23:42;;;;;;;2.50;0.90;;;;;;;;;;5057628;28;20044;-85
2022/02/22 01:26:08;;;;;;;2.53;0.90;;;;;;;;;;5057653;28;20020;-84
2022/02/22 01:28:34;;;;;;;1.83;0.70;;;;;;;;;;5039116;28;20412;-85
2022/02/22 01:31:00;;;;;;;0.85;0.50;;;;;;;;;;5057347;28;20028;-83
2022/02/22 01:33:28;;;;;;;0.70;0.40;;;;;;;;;;5056590;28;20025;-85
2022/02/22 01:35:54;;;;;;;1.70;0.40;;;;;;;;;;5039702;28;20128;-85
2022/02/22 01:38:20;;;;;;;0.77;0.35;;;;;;;;;;5039147;28;20068;-86
2022/02/22 01:40:46;;;;;;;1.13;0.40;;;;;;;;;;5038654;28;20021;-83
2022/02/22 01:43:12;;;;;;;0.98;0.40;;;;;;;;;;5057684;28;20484;-86
2022/02/22 01:45:39;;;;;;;1.38;0.40;;;;;;;;;;5058346;28;20025;-85
2022/02/22 01:48:05;;;;;;;0.82;0.40;;;;;;;;;;5040161;28;20396;-86
2022/02/22 01:50:32;;;;;;;1.17;0.57;;;;;;;;;;5060642;28;20033;-83
2022/02/22 01:52:59;;;;;;;0.45;0.30;;;;;;;;;;5069242;28;20024;-85
2022/02/22 01:55:25;;;;;;;1.52;0.50;;;;;;;;;;5069721;28;20017;-84
2022/02/22 01:57:51;;;;;;;1.77;0.50;;;;;;;;;;5072858;28;20766;-85
2022/02/22 02:00:18;;;;;;;2.13;0.85;;;;;;;;;;5040700;28;20037;-86
2022/02/22 02:02:44;;;;;;;1.40;0.50;;;;;;;;;;5057647;28;20040;-87
2022/02/22 02:05:10;;;;;;;1.70;0.60;;;;;;;;;;5039679;28;20025;-85
2022/02/22 02:07:36;;;;;;;2.08;0.68;;;;;;;;;;5038284;28;20029;-84
2022/02/22 02:10:02;;;;;;;1.38;0.50;;;;;;;;;;5055459;28;20036;-86
2022/02/22 02:12:35;;;;;;;2.22;0.82;;;;;;;;;;5037930;28;20120;-86
2022/02/22 02:15:01;;;;;;;1.75;0.52;;;;;;;;;;5018280;28;20017;-86
2022/02/22 02:17:27;;;;;;;1.67;0.60;;;;;;;;;;5055517;28;20044;-84
2022/02/22 02:19:53;;;;;;;1.65;0.60;;;;;;;;;;5037756;28;20025;-84
2022/02/22 02:22:19;;;;;;;1.25;0.50;;;;;;;;;;5055462;28;20100;-85
2022/02/22 02:24:45;;;;;;;1.45;0.55;;;;;;;;;;5037927;28;20063;-86
2022/02/22 02:27:11;;;;;;;1.75;0.60;;;;;;;;;;5038913;28;20093;-85
2022/02/22 02:29:38;;;;;;;1.25;0.50;;;;;;;;;;5037835;28;20025;-86
2022/02/22 02:32:05;;;;;;;1.85;0.85;;;;;;;;;;5036918;28;20017;-85
2022/02/22 02:34:31;;;;;;;1.17;0.60;;;;;;;;;;5038119;28;20025;-86
2022/02/22 02:36:57;;;;;;;2.47;0.55;;;;;;;;;;5055676;28;20125;-86
2022/02/22 02:39:23;;;;;;;1.98;0.60;;;;;;;;;;5039477;28;20044;-86
2022/02/22 02:41:49;;;;;;;2.33;0.73;;;;;;;;;;5038189;28;20056;-84
2022/02/22 02:44:16;;;;;;;2.40;0.70;;;;;;;;;;5038300;28;20033;-85
2022/02/22 02:46:42;;;;;;;1.90;0.40;;;;;;;;;;5037997;28;20111;-84
2022/02/22 02:49:09;;;;;;;3.80;0.70;;;;;;;;;;5038072;28;20610;-86
2022/02/22 02:51:36;;;;;;;1.48;0.55;;;;;;;;;;5037664;28;20048;-85
2022/02/22 02:54:02;;;;;;;2.15;0.80;;;;;;;;;;5036723;28;20032;-85
2022/02/22 02:56:28;;;;;;;1.45;0.50;;;;;;;;;;5037222;28;20028;-85
2022/02/22 02:59:01;;;;;;;1.38;0.60;;;;;;;;;;5037736;28;20162;-85
2022/02/22 03:01:28;;;;;;;2.03;0.68;;;;;;;;;;5037424;28;20327;-86
2022/02/22 03:03:54;;;;;;;3.42;0.80;;;;;;;;;;5054072;28;20439;-85
2022/02/22 03:06:20;;;;;;;1.75;0.63;;;;;;;;;;5055180;28;20021;-85
2022/02/22 03:08:46;;;;;;;1.95;0.70;;;;;;;;;;5054221;28;20025;-85
2022/02/22 03:11:13;;;;;;;2.53;0.70;;;;;;;;;;5037950;28;20404;-85
2022/02/22 03:13:39;;;;;;;1.63;0.68;;;;;;;;;;5054314;28;20503;-86
2022/02/22 03:16:06;;;;;;;2.65;0.70;;;;;;;;;;5054841;28;20493;-86
2022/02/22 03:18:32;;;;;;;1.80;0.68;;;;;;;;;;5054660;28;20021;-86
2022/02/22 03:20:58;;;;;;;1.77;0.60;;;;;;;;;;5036771;28;20076;-86
2022/02/22 03:23:24;;;;;;;2.35;1.10;;;;;;;;;;5053513;28;20096;-86
2022/02/22 03:25:51;;;;;;;2.08;0.85;;;;;;;;;;5054696;28;20163;-85
2022/02/22 03:28:17;;;;;;;1.25;0.60;;;;;;;;;;5054468;28;20021;-85
2022/02/22 03:30:44;;;;;;;2.70;0.77;;;;;;;;;;5036210;28;20033;-84
2022/02/22 03:33:13;;;;;;;1.00;0.50;;;;;;;;;;5053838;28;20021;-85
2022/02/22 03:35:41;;;;;;;2.03;0.70;;;;;;;;;;5037324;28;20033;-85
2022/02/22 03:38:07;;;;;;;1.73;0.70;;;;;;;;;;5055901;28;20017;-85
2022/02/22 03:40:34;;;;;;;1.48;0.70;;;;;;;;;;5038075;28;20108;-85
2022/02/22 03:43:00;;;;;;;2.67;0.82;;;;;;;;;;5037163;28;20057;-86
2022/02/22 03:45:26;;;;;;;1.63;0.70;;;;;;;;;;5054874;28;20033;-85
2022/02/22 03:47:54;;;;;;;1.58;0.60;;;;;;;;;;5036738;28;20043;-86
2022/02/22 03:50:21;;;;;;;3.55;1.27;;;;;;;;;;5054013;28;20020;-85
2022/02/22 03:52:47;;;;;;;1.77;0.70;;;;;;;;;;5036342;28;20078;-85
2022/02/22 03:55:13;;;;;;;1.40;0.70;;;;;;;;;;5037872;28;20452;-86
2022/02/22 03:57:39;;;;;;;2.85;0.77;;;;;;;;;;5036583;28;20021;-86
2022/02/22 04:00:08;;;;;;;2.33;0.80;;;;;;;;;;5037037;28;20446;-86
2022/02/22 04:02:34;;;;;;;2.00;0.63;;;;;;;;;;5035144;28;20029;-86
2022/02/22 04:05:01;;;;;;;3.20;0.73;;;;;;;;;;5054810;28;20104;-85
2022/02/22 04:07:27;;;;;;;2.78;0.77;;;;;;;;;;5035841;28;20024;-86
2022/02/22 04:09:53;;;;;;;3.10;0.80;;;;;;;;;;5035746;28;20045;-85
2022/02/22 04:12:19;;;;;;;2.97;0.70;;;;;;;;;;5042650;28;20025;-85
2022/02/22 04:14:45;;;;;;;2.47;0.70;;;;;;;;;;5048309;28;20027;-82
2022/02/22 04:17:11;;;;;;;1.30;0.60;;;;;;;;;;5065050;28;20013;-82
2022/02/22 04:19:37;;;;;;;1.77;0.70;;;;;;;;;;5043167;28;20025;-84
2022/02/22 04:22:04;;;;;;;3.55;1.13;;;;;;;;;;5029512;28;20076;-86
2022/02/22 04:24:30;;;;;;;3.28;0.90;;;;;;;;;;5036048;28;20104;-85
2022/02/22 04:26:56;;;;;;;3.10;0.82;;;;;;;;;;5036347;28;20021;-84
2022/02/22 04:29:22;;;;;;;2.60;0.80;;;;;;;;;;5054038;28;20056;-84
2022/02/22 04:31:48;;;;;;;2.47;0.80;;;;;;;;;;5054294;28;20033;-85
2022/02/22 04:34:14;;;;;;;2.45;0.80;;;;;;;;;;5036367;28;20028;-84
2022/02/22 04:36:40;;;;;;;3.15;1.00;;;;;;;;;;5053333;28;20033;-85
2022/02/22 04:39:06;;;;;;;2.20;0.85;;;;;;;;;;5035479;28;20025;-85
2022/02/22 04:41:32;;;;;;;2.08;0.70;;;;;;;;;;5053494;28;20042;-85
2022/02/22 04:43:58;;;;;;;2.40;0.60;;;;;;;;;;5034201;28;20059;-85
2022/02/22 04:46:24;;;;;;;2.75;0.77;;;;;;;;;;5034706;28;20033;-86
2022/02/22 04:48:50;;;;;;;2.28;0.75;;;;;;;;;;5048028;28;20032;-85
2022/02/22 04:51:17;;;;;;;2.38;0.70;;;;;;;;;;5034574;28;20032;-83
2022/02/22 04:53:43;;;;;;;3.15;0.80;;;;;;;;;;5046100;28;20029;-84
2022/02/22 04:56:09;;;;;;;2.88;0.95;;;;;;;;;;5030578;28;20018;-85
2022/02/22 04:58:36;;;;;;;2.58;0.70;;;;;;;;;;5033679;28;20029;-84
2022/02/22 05:01:02;;;;;;;2.53;0.88;;;;;;;;;;5034683;28;20365;-86
2022/02/22 05:03:28;;;;;;;2.50;0.80;;;;;;;;;;5033886;28;20088;-85
2022/02/22 05:05:54;;;;;;;2.65;0.98;;;;;;;;;;5052398;28;20053;-85
2022/02/22 05:08:22;;;;;;;2.05;1.13;;;;;;;;;;5050851;28;20061;-85
2022/02/22 05:10:48;;;;;;;2.10;0.70;;;;;;;;;;5033934;28;20237;-86
2022/02/22 05:13:15;;;;;;;2.70;0.90;;;;;;;;;;5052239;28;20105;-85
2022/02/22 05:15:41;;;;;;;2.33;0.90;;;;;;;;;;5052580;28;20025;-84
2022/02/22 05:18:07;;;;;;;2.63;0.90;;;;;;;;;;5051309;28;20048;-85
2022/02/22 05:20:33;;;;;;;1.70;0.73;;;;;;;;;;5032632;28;20128;-83
2022/02/22 05:22:59;;;;;;;1.55;0.75;;;;;;;;;;5050857;28;20057;-82
2022/02/22 05:25:25;;;;;;;2.58;1.40;;;;;;;;;;5032766;28;20029;-84
2022/02/22 05:27:52;;;;;;;2.60;1.40;;;;;;;;;;5051130;28;20128;-85
2022/02/22 05:30:22;;;;;;;2.78;1.00;;;;;;;;;;5033762;28;20028;-83
2022/02/22 05:32:48;;;;;;;3.05;1.17;;;;;;;;;;5032599;28;20021;-85
2022/02/22 05:35:14;;;;;;;2.50;0.90;;;;;;;;;;5032245;28;20082;-84
2022/02/22 05:37:40;;;;;;;2.38;0.90;;;;;;;;;;5033872;28;20028;-84
2022/02/22 05:40:07;;;;;;;3.13;0.90;;;;;;;;;;5032770;28;20499;-85
2022/02/22 05:42:35;;;;;;;3.70;1.40;;;;;;;;;;5034751;28;20119;-85
2022/02/22 05:45:01;;;;;;;3.80;1.40;;;;;;;;;;5052511;28;20476;-84
2022/02/22 05:47:27;;;;;;;3.28;1.15;;;;;;;;;;5052282;28;20028;-86
2022/02/22 05:49:54;;;;;;;2.97;1.17;;;;;;;;;;5054438;28;20154;-86
2022/02/22 05:52:20;;;;;;;4.45;1.02;;;;;;;;;;5036644;28;20032;-86
2022/02/22 05:54:46;;;;;;;2.97;1.20;;;;;;;;;;5034696;28;20454;-86
2022/02/22 05:57:12;;;;;;;4.03;1.58;;;;;;;;;;5035047;28;20455;-86
2022/02/22 05:59:38;;;;;;;3.70;1.70;;;;;;;;;;5036773;28;20300;-84
2022/02/22 06:02:05;;;;;;;3.35;1.30;;;;;;;;;;5035117;28;20657;-85
2022/02/22 06:04:31;;;;;;;2.95;1.33;;;;;;;;;;5037846;28;20112;-85
2022/02/22 06:06:57;;;;;;;3.95;1.73;;;;;;;;;;5055653;28;20032;-85
2022/02/22 06:09:23;;;;;;;3.30;1.50;;;;;;;;;;5057584;28;20033;-86
2022/02/22 06:11:49;;;;;;;3.33;1.63;;;;;;;;;;5065103;28;20028;-85
2022/02/22 06:14:15;;;;;;;3.95;1.60;;;;;;;;;;5036508;28;20025;-85
2022/02/22 06:16:41;;;;;;;5.78;1.73;;;;;;;;;;5036237;28;20032;-85
2022/02/22 06:19:07;;;;;;;3.95;1.40;;;;;;;;;;5055526;28;20025;-86
2022/02/22 06:21:33;;;;;;;3.33;1.50;;;;;;;;;;5054364;28;20033;-85
2022/02/22 06:24:00;;;;;;;4.20;1.58;;;;;;;;;;5036468;28;20032;-87
2022/02/22 06:26:26;;;;;;;4.63;1.85;;;;;;;;;;5055607;28;20048;-83
2022/02/22 06:28:52;;;;;;;3.83;1.60;;;;;;;;;;5054736;28;20029;-86
2022/02/22 06:31:18;;;;;;;5.63;1.90;;;;;;;;;;5055397;28;20032;-86
2022/02/22 06:33:44;;;;;;;4.00;1.67;;;;;;;;;;5037906;28;20071;-86
2022/02/22 06:36:10;;;;;;;4.47;2.05;;;;;;;;;;5030533;28;20220;-86
2022/02/22 06:38:36;;;;;;;3.95;1.83;;;;;;;;;;5034270;28;20587;-85
2022/02/22 06:41:02;;;;;;;5.60;2.20;;;;;;;;;;5036818;28;20036;-82
2022/02/22 06:43:28;;;;;;;3.70;1.83;;;;;;;;;;5054081;28;20021;-85
2022/02/22 06:45:54;;;;;;;4.20;1.90;;;;;;;;;;5054050;28;20100;-86
2022/02/22 06:48:20;;;;;;;4.40;2.03;;;;;;;;;;5037077;28;20021;-87
2022/02/22 06:50:46;;;;;;;4.50;1.75;;;;;;;;;;5037943;28;20021;-84
2022/02/22 06:53:12;;;;;;;6.53;2.53;;;;;;;;;;5055866;28;20431;-85
2022/02/22 06:55:39;;;;;;;4.28;2.05;;;;;;;;;;5037564;28;20033;-86
2022/02/22 06:58:06;;;;;;;4.40;2.33;;;;;;;;;;5038521;28;20020;-85
2022/02/22 07:00:33;;;;;;;4.60;2.13;;;;;;;;;;5055458;28;20045;-86
2022/02/22 07:02:59;;;;;;;5.50;2.15;;;;;;;;;;5036614;28;20036;-85
2022/02/22 07:05:25;;;;;;;5.72;2.45;;;;;;;;;;5061503;28;20031;-85
2022/02/22 07:07:52;;;;;;;4.68;1.92;;;;;;;;;;5029752;28;20055;-85
2022/02/22 07:10:18;;;;;;;6.18;2.40;;;;;;;;;;5054934;28;20388;-85
2022/02/22 07:12:44;;;;;;;4.93;2.30;;;;;;;;;;5055331;28;20025;-86
2022/02/22 07:15:11;;;;;;;5.13;2.28;;;;;;;;;;5036097;28;20041;-85
2022/02/22 07:17:47;;;;;;;5.07;2.25;;;;;;;;;;5055766;28;20428;-87
2022/02/22 07:20:14;;;;;;;4.53;2.03;;;;;;;;;;5055039;28;20393;-84
2022/02/22 07:22:40;;;;;;;5.78;2.40;;;;;;;;;;5054719;28;20021;-86
2022/02/22 07:25:09;;;;;;;4.18;2.05;;;;;;;;;;5055340;28;20041;-85
2022/02/22 07:27:36;;;;;;;6.18;3.08;;;;;;;;;;5055224;28;20029;-84
2022/02/22 07:30:03;;;;;;;5.78;2.50;;;;;;;;;;5055099;28;20079;-85
2022/02/22 07:32:29;;;;;;;5.47;2.35;;;;;;;;;;5037195;28;20508;-86
2022/02/22 07:34:57;;;;;;;5.88;2.88;;;;;;;;;;5037320;28;20167;-86
2022/02/22 07:37:23;;;;;;;7.45;3.13;;;;;;;;;;5037333;28;20454;-84
2022/02/22 07:39:49;;;;;;;6.05;2.42;;;;;;;;;;5037415;28;20029;-87
2022/02/22 07:42:15;;;;;;;4.35;2.17;;;;;;;;;;5055230;28;20233;-84
2022/02/22 07:44:41;;;;;;;5.30;2.53;;;;;;;;;;5055599;28;20052;-84
2022/02/22 07:47:07;;;;;;;4.57;2.13;;;;;;;;;;5055181;28;20040;-85
2022/02/22 07:49:33;;;;;;;3.97;1.75;;;;;;;;;;5055293;28;20037;-86
2022/02/22 07:51:59;;;;;;;4.03;1.50;;;;;;;;;;5037382;28;20028;-85
2022/02/22 07:54:25;;;;;;;4.10;2.00;;;;;;;;;;5055236;28;20419;-86
2022/02/22 07:56:51;;;;;;;3.70;1.50;;;;;;;;;;5036981;28;20093;-85
2022/02/22 07:59:17;;;;;;;4.20;1.55;;;;;;;;;;5054974;28;20100;-86
2022/02/22 08:01:43;;;;;;;4.80;1.70;;;;;;;;;;5036686;28;20119;-86
2022/02/22 08:04:09;;;;;;;4.60;1.60;;;;;;;;;;5054751;28;20025;-85
2022/02/22 08:06:35;;;;;;;4.38;1.40;;;;;;;;;;5055241;28;20025;-86
2022/02/22 08:09:02;;;;;;;4.18;1.75;;;;;;;;;;5036716;28;20029;-83
2022/02/22 08:11:31;;;;;;;4.72;1.80;;;;;;;;;;5054944;28;20021;-84
2022/02/22 08:13:59;;;;;;;3.88;2.00;;;;;;;;;;5053664;28;20013;-86
2022/02/22 08:16:26;;;;;;;4.40;2.10;;;;;;;;;;5055877;28;20017;-85
2022/02/22 08:18:52;;;;;;;5.55;2.25;;;;;;;;;;5036500;28;20047;-86
2022/02/22 08:21:18;;;;;;;4.57;1.90;;;;;;;;;;5036406;28;20052;-85
2022/02/22 08:23:44;;;;;;;4.22;1.80;;;;;;;;;;5036135;28;20030;-84
2022/02/22 08:26:10;;;;;;;8.88;3.22;;;;;;;;;;5056066;28;20025;-86
2022/02/22 08:28:38;;;;;;;6.35;2.90;;;;;;;;;;5055220;28;20025;-86
2022/02/22 08:31:05;;;;;;;8.77;2.30;;;;;;;;;;5037489;28;20021;-86
2022/02/22 08:33:31;;;;;;;4.78;1.90;;;;;;;;;;5055703;28;20025;-85
2022/02/22 08:35:58;;;;;;;4.85;1.75;;;;;;;;;;5060278;28;20101;-87
2022/02/22 08:38:24;;;;;;;5.18;2.10;;;;;;;;;;5057242;28;20037;-86
2022/02/22 08:40:50;;;;;;;5.43;2.58;;;;;;;;;;5057676;28;20066;-87
2022/02/22 08:43:16;;;;;;;5.45;2.10;;;;;;;;;;5057247;28;20028;-85
2022/02/22 08:45:43;;;;;;;3.60;1.80;;;;;;;;;;5043340;28;20028;-85
2022/02/22 08:48:10;;;;;;;5.35;1.80;;;;;;;;;;5037035;28;20025;-86
2022/02/22 08:50:36;;;;;;;4.28;1.95;;;;;;;;;;5038671;28;20025;-87
2022/02/22 08:53:03;;;;;;;5.45;2.42;;;;;;;;;;5042025;28;20047;-87
2022/02/22 08:55:31;;;;;;;5.90;2.55;;;;;;;;;;5055537;28;20114;-86
2022/02/22 08:57:58;;;;;;;5.88;2.50;;;;;;;;;;5054933;28;20017;-86
2022/02/22 09:00:24;;;;;;;4.82;2.35;;;;;;;;;;5037926;28;20021;-86
2022/02/22 09:02:57;;;;;;;5.18;2.40;;;;;;;;;;5059517;28;20458;-86
2022/02/22 09:05:23;;;;;;;5.05;2.72;;;;;;;;;;5041106;28;20035;-86
2022/02/22 09:07:49;;;;;;;5.82;2.50;;;;;;;;;;5058633;28;20092;-86
2022/02/22 09:10:16;;;;;;;4.70;2.17;;;;;;;;;;5058714;28;20075;-85
2022/02/22 09:12:43;;;;;;;5.97;2.30;;;;;;;;;;5042300;28;20413;-86
2022/02/22 09:15:10;;;;;;;4.75;2.15;;;;;;;;;;5041968;28;20028;-85
2022/02/22 09:17:36;;;;;;;6.85;3.47;;;;;;;;;;5043381;28;20043;-85
2022/02/22 09:20:04;;;;;;;5.35;2.40;;;;;;;;;;5042199;28;20025;-84
2022/02/22 09:22:30;;;;;;;4.40;2.08;;;;;;;;;;5042299;28;20047;-84
2022/02/22 09:24:56;;;;;;;5.15;2.13;;;;;;;;;;5046026;28;20033;-85
2022/02/22 09:27:22;;;;;;;5.07;1.95;;;;;;;;;;5063301;28;20024;-84
2022/02/22 09:29:48;;;;;;;4.53;2.10;;;;;;;;;;5066208;28;20029;-85
2022/02/22 09:32:14;;;;;;;4.07;1.88;;;;;;;;;;5044643;28;20028;-85
2022/02/22 09:34:40;;;;;;;3.95;1.80;;;;;;;;;;5041676;28;20021;-84
2022/02/22 09:37:06;;;;;;;4.05;1.73;;;;;;;;;;5059696;28;20431;-85
2022/02/22 09:39:34;;;;;;;4.30;1.80;;;;;;;;;;5042051;28;20459;-85
2022/02/22 09:42:01;;;;;;;3.33;1.73;;;;;;;;;;5059641;28;20017;-85
2022/02/22 09:44:27;;;;;;;3.40;1.80;;;;;;;;;;5040614;28;20056;-83
2022/02/22 09:46:53;;;;;;;5.13;1.80;;;;;;;;;;5058238;28;20040;-85
2022/02/22 09:49:19;;;;;;;3.08;1.40;;;;;;;;;;5058687;28;20497;-85
2022/02/22 09:51:45;;;;;;;3.28;1.50;;;;;;;;;;5059007;28;20055;-85
2022/02/22 09:54:12;;;;;;;3.72;1.60;;;;;;;;;;5058093;28;20408;-84
2022/02/22 09:56:45;;;;;;;3.63;1.50;;;;;;;;;;5040888;28;20028;-84
2022/02/22 09:59:11;;;;;;;4.63;1.73;;;;;;;;;;5058601;28;20476;-85
2022/02/22 10:01:45;;;;;;;3.47;1.50;;;;;;;;;;5040887;28;20032;-84
2022/02/22 10:04:11;;;;;;;4.68;1.70;;;;;;;;;;5040359;28;20052;-85
2022/02/22 10:06:37;;;;;;;4.50;1.80;;;;;;;;;;5058546;28;20037;-84
2022/02/22 10:09:04;;;;;;;4.57;1.75;;;;;;;;;;5040708;28;20021;-85
2022/02/22 10:11:33;;;;;;;4.13;1.90;;;;;;;;;;5058017;28;20078;-86
2022/02/22 10:14:02;;;;;;;4.03;1.80;;;;;;;;;;5039459;28;20025;-85
2022/02/22 10:16:39;;;;;;;3.97;2.15;;;;;;;;;;5059528;28;20397;-85
2022/02/22 10:19:05;;;;;;;4.72;1.98;;;;;;;;;;5041295;28;20025;-84
2022/02/22 10:21:41;;;;;;;4.10;1.77;;;;;;;;;;5040840;28;20029;-84
2022/02/22 10:24:11;;;;;;;3.90;1.80;;;;;;;;;;5058276;28;20021;-85
2022/02/22 10:26:37;;;;;;;4.75;1.98;;;;;;;;;;5068592;28;20437;-84
2022/02/22 10:29:19;;;;;;;2.78;1.10;;;;;;;;;;5040245;28;20037;-84
2022/02/22 10:31:46;;;;;;;3.45;0.90;;;;;;;;;;5040080;28;20021;-84
2022/02/22 10:34:13;;;;;;;2.35;0.90;;;;;;;;;;5057167;28;20021;-85
2022/02/22 10:36:40;;;;;;;3.75;1.10;;;;;;;;;;5055252;28;20041;-85
2022/02/22 10:39:12;;;;;;;2.83;1.05;;;;;;;;;;5054527;28;20113;-86
2022/02/22 10:41:40;;;;;;;2.75;0.63;;;;;;;;;;5055638;28;20567;-85
2022/02/22 10:44:08;;;;;;;3.53;1.00;;;;;;;;;;5036890;28;20036;-85
2022/02/22 10:46:40;;;;;;;3.83;1.00;;;;;;;;;;5054581;28;20025;-85
2022/02/22 10:49:12;;;;;;;1.75;0.70;;;;;;;;;;5037053;28;20323;-85
2022/02/22 10:51:49;;;;;;;2.67;1.00;;;;;;;;;;5037486;28;20537;-85
2022/02/22 10:54:23;;;;;;;2.63;0.77;;;;;;;;;;5057850;28;20074;-85
2022/02/22 10:56:50;;;;;;;4.40;1.27;;;;;;;;;;5057163;28;20113;-85
2022/02/22 10:59:19;;;;;;;2.40;1.00;;;;;;;;;;5057307;28;20392;-85
2022/02/22 11:01:45;;;;;;;3.40;1.10;;;;;;;;;;5057162;28;20074;-85
2022/02/22 11:04:12;;;;;;;2.25;0.60;;;;;;;;;;5038538;28;20460;-85
2022/02/22 11:06:38;;;;;;;2.75;0.68;;;;;;;;;;5040956;28;20151;-85
2022/02/22 11:09:04;;;;;;;2.97;0.70;;;;;;;;;;5057338;28;20047;-85
2022/02/22 11:11:42;;;;;;;3.05;0.80;;;;;;;;;;5058863;28;20028;-85
2022/02/22 11:14:08;;;;;;;3.55;1.55;;;;;;;;;;5059307;28;20025;-85
2022/02/22 11:16:41;;;;;;;2.85;1.10;;;;;;;;;;5059736;28;20416;-86
2022/02/22 11:19:17;;;;;;;3.03;1.20;;;;;;;;;;5041944;28;20025;-86
2022/02/22 11:21:44;;;;;;;4.60;1.25;;;;;;;;;;5061760;28;20033;-85
2022/02/22 11:24:10;;;;;;;3.50;1.10;;;;;;;;;;5057342;28;20028;-85
2022/02/22 11:26:53;;;;;;;4.68;1.67;;;;;;;;;;5060249;28;20028;-85
2022/02/22 11:29:21;;;;;;;3.92;1.05;;;;;;;;;;5064541;28;20055;-85
2022/02/22 11:31:57;;;;;;;6.30;1.35;;;;;;;;;;5057687;28;20087;-85
2022/02/22 11:34:37;;;;;;;4.13;1.35;;;;;;;;;;5058319;28;20017;-85
2022/02/22 11:37:04;;;;;;;4.47;1.17;;;;;;;;;;5039918;28;20048;-85
2022/02/22 11:39:31;;;;;;;5.78;1.20;;;;;;;;;;5040805;28;20496;-84
2022/02/22 11:41:59;;;;;;;4.45;1.10;;;;;;;;;;5041483;28;20028;-85
2022/02/22 11:44:26;;;;;;;6.68;1.60;;;;;;;;;;5058562;28;20021;-84
2022/02/22 11:46:54;;;;;;;6.18;1.60;;;;;;;;;;5060735;28;20025;-85
2022/02/22 11:49:24;;;;;;;3.38;1.00;;;;;;;;;;5057031;28;20014;-85
2022/02/22 11:51:56;;;;;;;4.47;1.30;;;;;;;;;;5059516;28;20017;-84
2022/02/22 11:54:24;;;;;;;6.77;1.50;;;;;;;;;;5030404;28;20017;-85
2022/02/22 11:57:05;;;;;;;5.32;1.35;;;;;;;;;;5046681;28;20031;-85
2022/02/22 11:59:33;;;;;;;5.35;1.23;;;;;;;;;;5058187;28;20037;-86
2022/02/22 12:02:00;;;;;;;5.78;1.27;;;;;;;;;;5058270;28;20120;-85
2022/02/22 12:04:28;;;;;;;3.40;1.05;;;;;;;;;;5040718;28;20035;-86
2022/02/22 12:06:56;;;;;;;4.45;1.35;;;;;;;;;;5059331;28;20037;-86
2022/02/22 12:09:38;;;;;;;4.43;1.38;;;;;;;;;;5060123;28;20108;-86
2022/02/22 12:12:05;;;;;;;5.05;2.30;;;;;;;;;;5060260;28;20024;-86
2022/02/22 12:14:31;;;;;;;4.93;1.20;;;;;;;;;;5059883;28;20393;-86
2022/02/22 12:16:57;;;;;;;5.15;1.55;;;;;;;;;;5041740;28;20017;-86
2022/02/22 12:19:24;;;;;;;4.85;1.23;;;;;;;;;;5041864;28;20033;-85
2022/02/22 12:21:51;;;;;;;3.53;1.92;;;;;;;;;;5041503;28;20307;-85
2022/02/22 12:24:21;;;;;;;4.75;1.05;;;;;;;;;;5040368;28;20025;-84
2022/02/22 12:26:47;;;;;;;4.90;1.08;;;;;;;;;;5040149;28;20184;-85
2022/02/22 12:29:13;;;;;;;3.70;1.00;;;;;;;;;;5041229;28;20025;-85
2022/02/22 12:31:41;;;;;;;3.88;0.85;;;;;;;;;;5039927;28;20025;-85
2022/02/22 12:34:08;;;;;;;2.53;0.90;;;;;;;;;;5058715;28;20017;-84
2022/02/22 12:36:35;;;;;;;4.45;1.40;;;;;;;;;;5062296;28;20076;-85
2022/02/22 12:39:11;;;;;;;4.85;1.40;;;;;;;;;;5062282;28;20025;-85
2022/02/22 12:41:38;;;;;;;6.03;1.73;;;;;;;;;;5044251;28;20021;-87
2022/02/22 12:44:09;;;;;;;3.70;1.00;;;;;;;;;;5062213;28;20401;-84
2022/02/22 12:46:35;;;;;;;5.43;1.00;;;;;;;;;;5044356;28;20024;-84
2022/02/22 12:49:08;;;;;;;3.38;0.95;;;;;;;;;;5061035;28;20491;-85
2022/02/22 12:51:34;;;;;;;;;;;;;;;;;;5063777;28;20309;-85
2022/02/22 12:54:00;;;;;;;2.95;0.80;;;;;;;;;;5061548;28;20284;-84
2022/02/22 12:56:32;;;;;;;5.07;1.85;;;;;;;;;;5044723;28;20044;-85
2022/02/22 12:58:58;;;;;;;4.28;1.10;;;;;;;;;;5030128;28;20025;-84
2022/02/22 13:01:26;;;;;;;6.45;0.85;;;;;;;;;;5061111;28;20096;-85
2022/02/22 13:03:52;;;;;;;3.55;0.90;;;;;;;;;;5046874;28;20017;-86
2022/02/22 13:06:18;;;;;;;3.10;1.00;;;;;;;;;;5062937;28;20025;-86
2022/02/22 13:08:45;;;;;;;3.10;0.80;;;;;;;;;;5042747;28;20031;-85
2022/02/22 13:11:11;;;;;;;4.55;0.95;;;;;;;;;;5044944;28;20036;-85
2022/02/22 13:13:37;;;;;;;5.93;1.10;;;;;;;;;;5044825;28;20040;-85
2022/02/22 13:16:11;;;;;;;7.78;1.65;;;;;;;;;;5061091;28;20480;-85
2022/02/22 13:18:37;;;;;;;4.13;1.20;;;;;;;;;;5045186;28;20027;-85
2022/02/22 13:21:13;;;;;;;5.57;1.52;;;;;;;;;;5043469;28;20040;-84
2022/02/22 13:23:39;;;;;;;5.65;1.52;;;;;;;;;;5061889;28;20096;-85
2022/02/22 13:26:05;;;;;;;3.13;1.10;;;;;;;;;;5042961;28;20032;-85
2022/02/22 13:28:35;;;;;;;4.22;1.10;;;;;;;;;;5060598;28;20083;-85
2022/02/22 13:31:12;;;;;;;3.35;1.10;;;;;;;;;;5061983;28;20025;-85
2022/02/22 13:33:38;;;;;;;4.15;0.98;;;;;;;;;;5043919;28;20025;-84
2022/02/22 13:36:11;;;;;;;3.30;0.90;;;;;;;;;;5041243;28;20051;-85
2022/02/22 13:38:37;;;;;;;5.07;1.13;;;;;;;;;;5062169;28;20025;-86
2022/02/22 13:41:07;;;;;;;5.28;1.30;;;;;;;;;;5042819;28;20056;-84
2022/02/22 13:43:34;;;;;;;5.60;1.23;;;;;;;;;;5044475;28;20046;-85
2022/02/22 13:46:01;;;;;;;3.95;1.20;;;;;;;;;;5060085;28;20078;-85
2022/02/22 13:48:29;;;;;;;5.60;0.90;;;;;;;;;;5042497;28;20040;-84
2022/02/22 13:51:14;;;;;;;4.38;1.10;;;;;;;;;;5042508;28;20029;-84
2022/02/22 13:53:40;;;;;;;5.25;1.50;;;;;;;;;;5061682;28;20025;-83
2022/02/22 13:56:08;;;;;;;3.45;1.30;;;;;;;;;;5060757;28;20035;-84
2022/02/22 13:58:34;;;;;;;5.97;1.58;;;;;;;;;;5042876;28;20488;-84
2022/02/22 14:01:04;;;;;;;3.75;1.30;;;;;;;;;;5043022;28;20043;-83
2022/02/22 14:03:31;;;;;;;4.55;1.98;;;;;;;;;;5042373;28;20064;-85
2022/02/22 14:06:02;;;;;;;3.25;1.00;;;;;;;;;;5060709;28;20029;-86
2022/02/22 14:08:28;;;;;;;4.78;1.48;;;;;;;;;;5045559;28;20500;-82
2022/02/22 14:10:54;;;;;;;3.70;1.13;;;;;;;;;;5060170;28;20059;-84
2022/02/22 14:13:20;;;;;;;5.65;1.20;;;;;;;;;;5060017;28;20044;-85
2022/02/22 14:15:47;;;;;;;5.53;1.50;;;;;;;;;;5042912;28;20021;-85
2022/02/22 14:18:14;;;;;;;3.47;1.20;;;;;;;;;;5061897;28;20112;-86
2022/02/22 14:20:41;;;;;;;5.10;1.48;;;;;;;;;;5059654;28;20039;-86
2022/02/22 14:23:07;;;;;;;4.15;1.00;;;;;;;;;;5041348;28;20025;-85
2022/02/22 14:25:36;;;;;;;3.25;1.23;;;;;;;;;;5041057;28;20031;-85
2022/02/22 14:28:03;;;;;;;4.60;1.10;;;;;;;;;;5040419;28;20049;-85
2022/02/22 14:30:30;;;;;;;5.25;1.10;;;;;;;;;;5042010;28;20396;-84
2022/02/22 14:33:03;;;;;;;3.65;1.20;;;;;;;;;;5042474;28;20115;-85
2022/02/22 14:35:29;;;;;;;;;;;;;;;;;;5063353;28;20045;-86
2022/02/22 14:37:55;;;;;;;5.80;1.52;;;;;;;;;;5060687;28;20322;-86
2022/02/22 14:40:22;;;;;;;3.90;1.30;;;;;;;;;;5059525;28;20500;-85
2022/02/22 14:42:49;;;;;;;4.32;1.38;;;;;;;;;;5060334;28;20033;-86